sensor_id;sensor_type;location;lat;lon;timestamp;temperature;humidity
21582;DHT22;10952;50.836;4.348;2022-12-17T00:01:44;0.70;99.90
21582;DHT22;10952;50.836;4.348;2022-12-17T00:04:28;0.70;99.90
21582;DHT22;10952;50.836;4.348;2022-12-17T00:07:12;0.70;99.90
21582;DHT22;10952;50.836;4.348;2022-12-17T00:09:57;0.70;99.90
21582;DHT22;10952;50.836;4.348;2022-12-17T00:12:46;0.60;99.90
21582;DHT22;10952;50.836;4.348;2022-12-17T00:15:30;0.60;99.90
21582;DHT22;10952;50.836;4.348;2022-12-17T00:18:14;0.50;99.90
21582;DHT22;10952;50.836;4.348;2022-12-17T00:20:59;0.50;99.90
21582;DHT22;10952;50.836;4.348;2022-12-17T00:23:45;0.50;99.90
21582;DHT22;10952;50.836;4.348;2022-12-17T00:26:31;0.50;99.90
21582;DHT22;10952;50.836;4.348;2022-12-17T00:29:16;0.60;99.90
21582;DHT22;10952;50.836;4.348;2022-12-17T00:32:00;0.40;99.90
21582;DHT22;10952;50.836;4.348;2022-12-17T00:34:45;0.30;99.90
21582;DHT22;10952;50.836;4.348;2022-12-17T00:37:31;0.30;99.90
21582;DHT22;10952;50.836;4.348;2022-12-17T00:40:16;0.30;99.90
21582;DHT22;10952;50.836;4.348;2022-12-17T00:43:08;0.30;99.90
21582;DHT22;10952;50.836;4.348;2022-12-17T00:45:53;0.30;99.90
21582;DHT22;10952;50.836;4.348;2022-12-17T00:48:37;0.30;99.90
21582;DHT22;10952;50.836;4.348;2022-12-17T00:51:23;0.20;99.90
21582;DHT22;10952;50.836;4.348;2022-12-17T00:54:07;-0.20;99.90
21582;DHT22;10952;50.836;4.348;2022-12-17T00:56:51;-0.20;99.90
21582;DHT22;10952;50.836;4.348;2022-12-17T00:59:36;-0.20;99.90
21582;DHT22;10952;50.836;4.348;2022-12-17T01:02:20;-0.20;99.90
21582;DHT22;10952;50.836;4.348;2022-12-17T01:05:05;-0.20;99.90
21582;DHT22;10952;50.836;4.348;2022-12-17T01:07:50;-0.10;99.90
21582;DHT22;10952;50.836;4.348;2022-12-17T01:10:36;-0.10;99.90
21582;DHT22;10952;50.836;4.348;2022-12-17T01:13:21;0.00;99.90
21582;DHT22;10952;50.836;4.348;2022-12-17T01:16:08;0.00;99.90
21582;DHT22;10952;50.836;4.348;2022-12-17T01:18:53;0.00;99.90
21582;DHT22;10952;50.836;4.348;2022-12-17T01:21:38;-0.20;99.90
21582;DHT22;10952;50.836;4.348;2022-12-17T01:24:23;-0.40;99.90
21582;DHT22;10952;50.836;4.348;2022-12-17T01:27:08;-0.50;99.90
21582;DHT22;10952;50.836;4.348;2022-12-17T01:29:53;-0.60;99.90
21582;DHT22;10952;50.836;4.348;2022-12-17T01:32:37;-0.50;99.90
21582;DHT22;10952;50.836;4.348;2022-12-17T01:35:22;-0.60;99.90
21582;DHT22;10952;50.836;4.348;2022-12-17T01:38:12;-0.60;99.90
21582;DHT22;10952;50.836;4.348;2022-12-17T01:40:57;-0.60;99.90
21582;DHT22;10952;50.836;4.348;2022-12-17T01:43:41;-0.50;99.90
21582;DHT22;10952;50.836;4.348;2022-12-17T01:46:35;-0.40;99.90
21582;DHT22;10952;50.836;4.348;2022-12-17T01:49:24;-0.40;99.90
21582;DHT22;10952;50.836;4.348;2022-12-17T01:52:11;-0.50;99.90
21582;DHT22;10952;50.836;4.348;2022-12-17T01:55:02;-0.40;99.90
21582;DHT22;10952;50.836;4.348;2022-12-17T01:57:50;-0.40;99.90
21582;DHT22;10952;50.836;4.348;2022-12-17T02:00:37;-0.50;99.90
21582;DHT22;10952;50.836;4.348;2022-12-17T02:03:24;-0.50;99.90
21582;DHT22;10952;50.836;4.348;2022-12-17T02:06:24;-0.60;99.90
21582;DHT22;10952;50.836;4.348;2022-12-17T02:12:10;-0.60;99.90
21582;DHT22;10952;50.836;4.348;2022-12-17T02:15:00;-0.70;99.90
21582;DHT22;10952;50.836;4.348;2022-12-17T02:17:53;-0.60;99.90
21582;DHT22;10952;50.836;4.348;2022-12-17T02:20:43;-0.60;99.90
21582;DHT22;10952;50.836;4.348;2022-12-17T02:27:03;-0.60;99.90
21582;DHT22;10952;50.836;4.348;2022-12-17T02:29:53;-0.50;99.90
21582;DHT22;10952;50.836;4.348;2022-12-17T02:32:40;-0.50;99.90
21582;DHT22;10952;50.836;4.348;2022-12-17T02:35:41;-0.40;99.90
21582;DHT22;10952;50.836;4.348;2022-12-17T02:38:30;-0.40;99.90
21582;DHT22;10952;50.836;4.348;2022-12-17T02:41:22;-0.30;99.90
21582;DHT22;10952;50.836;4.348;2022-12-17T02:44:12;-0.40;99.90
21582;DHT22;10952;50.836;4.348;2022-12-17T02:47:01;-0.40;99.90
21582;DHT22;10952;50.836;4.348;2022-12-17T02:49:46;-0.40;99.90
21582;DHT22;10952;50.836;4.348;2022-12-17T02:52:32;-0.40;99.90
21582;DHT22;10952;50.836;4.348;2022-12-17T02:55:20;-0.60;99.90
21582;DHT22;10952;50.836;4.348;2022-12-17T02:58:07;-0.60;99.90
21582;DHT22;10952;50.836;4.348;2022-12-17T03:00:55;-0.50;99.90
21582;DHT22;10952;50.836;4.348;2022-12-17T03:03:53;-0.50;99.90
21582;DHT22;10952;50.836;4.348;2022-12-17T03:06:37;-0.40;99.90
21582;DHT22;10952;50.836;4.348;2022-12-17T03:09:22;-0.40;99.90
21582;DHT22;10952;50.836;4.348;2022-12-17T03:12:23;-0.50;99.90
21582;DHT22;10952;50.836;4.348;2022-12-17T03:15:07;-0.50;99.90
21582;DHT22;10952;50.836;4.348;2022-12-17T03:17:53;-0.60;99.90
21582;DHT22;10952;50.836;4.348;2022-12-17T03:20:37;-0.60;99.90
21582;DHT22;10952;50.836;4.348;2022-12-17T03:23:22;-0.70;99.90
21582;DHT22;10952;50.836;4.348;2022-12-17T03:26:06;-0.70;99.90
21582;DHT22;10952;50.836;4.348;2022-12-17T03:28:50;-0.70;99.90
21582;DHT22;10952;50.836;4.348;2022-12-17T03:31:34;-0.80;99.90
21582;DHT22;10952;50.836;4.348;2022-12-17T03:34:19;-0.90;99.90
21582;DHT22;10952;50.836;4.348;2022-12-17T03:37:03;-0.80;99.90
21582;DHT22;10952;50.836;4.348;2022-12-17T03:39:47;-0.70;99.90
21582;DHT22;10952;50.836;4.348;2022-12-17T03:42:31;-1.00;99.90
21582;DHT22;10952;50.836;4.348;2022-12-17T03:45:15;-1.20;99.90
21582;DHT22;10952;50.836;4.348;2022-12-17T03:50:50;-1.10;99.90
21582;DHT22;10952;50.836;4.348;2022-12-17T03:53:34;-1.30;99.90
21582;DHT22;10952;50.836;4.348;2022-12-17T03:56:20;-1.30;99.90
21582;DHT22;10952;50.836;4.348;2022-12-17T03:59:07;-1.30;99.90
21582;DHT22;10952;50.836;4.348;2022-12-17T04:01:51;-1.20;99.90
21582;DHT22;10952;50.836;4.348;2022-12-17T04:04:35;-1.10;99.90
21582;DHT22;10952;50.836;4.348;2022-12-17T04:07:19;-1.10;99.90
21582;DHT22;10952;50.836;4.348;2022-12-17T04:10:05;-1.00;99.90
21582;DHT22;10952;50.836;4.348;2022-12-17T04:12:50;-1.00;99.90
21582;DHT22;10952;50.836;4.348;2022-12-17T04:15:35;-1.00;99.90
21582;DHT22;10952;50.836;4.348;2022-12-17T04:18:19;-1.00;99.90
21582;DHT22;10952;50.836;4.348;2022-12-17T04:21:03;-1.10;99.90
21582;DHT22;10952;50.836;4.348;2022-12-17T04:23:47;-1.10;99.90
21582;DHT22;10952;50.836;4.348;2022-12-17T04:26:33;-1.20;99.90
21582;DHT22;10952;50.836;4.348;2022-12-17T04:29:17;-1.20;99.90
21582;DHT22;10952;50.836;4.348;2022-12-17T04:32:01;-1.30;99.90
21582;DHT22;10952;50.836;4.348;2022-12-17T04:34:45;-1.40;99.90
21582;DHT22;10952;50.836;4.348;2022-12-17T04:37:30;-1.50;99.90
21582;DHT22;10952;50.836;4.348;2022-12-17T04:40:14;-1.50;99.90
21582;DHT22;10952;50.836;4.348;2022-12-17T04:43:07;-1.50;99.90
21582;DHT22;10952;50.836;4.348;2022-12-17T04:45:51;-1.60;99.90
21582;DHT22;10952;50.836;4.348;2022-12-17T04:48:35;-1.50;99.90
21582;DHT22;10952;50.836;4.348;2022-12-17T04:51:20;-1.50;99.90
21582;DHT22;10952;50.836;4.348;2022-12-17T04:54:04;-1.60;99.90
21582;DHT22;10952;50.836;4.348;2022-12-17T04:56:48;-1.60;99.90
21582;DHT22;10952;50.836;4.348;2022-12-17T04:59:32;-1.60;99.90
21582;DHT22;10952;50.836;4.348;2022-12-17T05:02:16;-1.50;99.90
21582;DHT22;10952;50.836;4.348;2022-12-17T05:05:00;-1.50;99.90
21582;DHT22;10952;50.836;4.348;2022-12-17T05:07:44;-1.40;99.90
21582;DHT22;10952;50.836;4.348;2022-12-17T05:10:29;-1.30;99.90
21582;DHT22;10952;50.836;4.348;2022-12-17T05:13:13;-1.40;99.90
21582;DHT22;10952;50.836;4.348;2022-12-17T05:15:58;-1.50;99.90
21582;DHT22;10952;50.836;4.348;2022-12-17T05:18:42;-1.50;99.90
21582;DHT22;10952;50.836;4.348;2022-12-17T05:21:26;-1.50;99.90
21582;DHT22;10952;50.836;4.348;2022-12-17T05:24:10;-1.40;99.90
21582;DHT22;10952;50.836;4.348;2022-12-17T05:26:54;-1.30;99.90
21582;DHT22;10952;50.836;4.348;2022-12-17T05:29:38;-1.50;99.90
21582;DHT22;10952;50.836;4.348;2022-12-17T05:32:31;-1.60;99.90
21582;DHT22;10952;50.836;4.348;2022-12-17T05:35:15;-1.60;99.90
21582;DHT22;10952;50.836;4.348;2022-12-17T05:38:04;-1.60;99.90
21582;DHT22;10952;50.836;4.348;2022-12-17T05:40:49;-1.60;99.90
21582;DHT22;10952;50.836;4.348;2022-12-17T05:43:34;-1.60;99.90
21582;DHT22;10952;50.836;4.348;2022-12-17T05:46:18;-1.70;99.90
21582;DHT22;10952;50.836;4.348;2022-12-17T05:49:03;-1.70;99.90
21582;DHT22;10952;50.836;4.348;2022-12-17T05:51:47;-1.70;99.90
21582;DHT22;10952;50.836;4.348;2022-12-17T05:54:31;-1.70;99.90
21582;DHT22;10952;50.836;4.348;2022-12-17T05:57:15;-1.60;99.90
21582;DHT22;10952;50.836;4.348;2022-12-17T06:00:01;-1.60;99.90
21582;DHT22;10952;50.836;4.348;2022-12-17T06:02:45;-1.60;99.90
21582;DHT22;10952;50.836;4.348;2022-12-17T06:05:29;-1.50;99.90
21582;DHT22;10952;50.836;4.348;2022-12-17T06:08:13;-1.40;99.90
21582;DHT22;10952;50.836;4.348;2022-12-17T06:10:58;-1.40;99.90
21582;DHT22;10952;50.836;4.348;2022-12-17T06:13:43;-1.40;99.90
21582;DHT22;10952;50.836;4.348;2022-12-17T06:16:28;-1.30;99.90
21582;DHT22;10952;50.836;4.348;2022-12-17T06:19:13;-1.20;99.90
21582;DHT22;10952;50.836;4.348;2022-12-17T06:21:58;-1.30;99.90
21582;DHT22;10952;50.836;4.348;2022-12-17T06:24:42;-1.30;99.90
21582;DHT22;10952;50.836;4.348;2022-12-17T06:27:26;-1.20;99.90
21582;DHT22;10952;50.836;4.348;2022-12-17T06:30:11;-1.30;99.90
21582;DHT22;10952;50.836;4.348;2022-12-17T06:33:06;-1.40;99.90
21582;DHT22;10952;50.836;4.348;2022-12-17T06:35:55;-1.40;99.90
21582;DHT22;10952;50.836;4.348;2022-12-17T06:38:39;-1.40;99.90
21582;DHT22;10952;50.836;4.348;2022-12-17T06:41:24;-1.50;99.90
21582;DHT22;10952;50.836;4.348;2022-12-17T06:44:08;-1.50;99.90
21582;DHT22;10952;50.836;4.348;2022-12-17T06:46:52;-1.50;99.90
21582;DHT22;10952;50.836;4.348;2022-12-17T06:49:36;-1.40;99.90
21582;DHT22;10952;50.836;4.348;2022-12-17T06:52:20;-1.50;99.90
21582;DHT22;10952;50.836;4.348;2022-12-17T06:55:05;-1.50;99.90
21582;DHT22;10952;50.836;4.348;2022-12-17T06:57:55;-1.50;99.90
21582;DHT22;10952;50.836;4.348;2022-12-17T07:00:39;-1.50;99.90
21582;DHT22;10952;50.836;4.348;2022-12-17T07:03:23;-1.50;99.90
21582;DHT22;10952;50.836;4.348;2022-12-17T07:06:07;-1.50;99.90
21582;DHT22;10952;50.836;4.348;2022-12-17T07:08:52;-1.50;99.90
21582;DHT22;10952;50.836;4.348;2022-12-17T07:11:36;-1.50;99.90
21582;DHT22;10952;50.836;4.348;2022-12-17T07:14:20;-1.50;99.90
21582;DHT22;10952;50.836;4.348;2022-12-17T07:17:05;-1.50;99.90
21582;DHT22;10952;50.836;4.348;2022-12-17T07:19:49;-1.50;99.90
21582;DHT22;10952;50.836;4.348;2022-12-17T07:22:33;-1.50;99.90
21582;DHT22;10952;50.836;4.348;2022-12-17T07:25:17;-1.60;99.90
21582;DHT22;10952;50.836;4.348;2022-12-17T07:28:01;-1.50;99.90
21582;DHT22;10952;50.836;4.348;2022-12-17T07:30:45;-1.40;99.90
21582;DHT22;10952;50.836;4.348;2022-12-17T07:33:29;-1.30;99.90
21582;DHT22;10952;50.836;4.348;2022-12-17T07:36:13;-1.20;99.90
21582;DHT22;10952;50.836;4.348;2022-12-17T07:38:57;-1.30;99.90
21582;DHT22;10952;50.836;4.348;2022-12-17T07:41:42;-1.40;99.90
21582;DHT22;10952;50.836;4.348;2022-12-17T07:44:26;-1.50;99.90
21582;DHT22;10952;50.836;4.348;2022-12-17T07:47:10;-1.60;99.90
21582;DHT22;10952;50.836;4.348;2022-12-17T07:49:54;-1.30;99.90
21582;DHT22;10952;50.836;4.348;2022-12-17T07:52:38;-1.20;99.90
21582;DHT22;10952;50.836;4.348;2022-12-17T07:55:22;-1.20;99.90
21582;DHT22;10952;50.836;4.348;2022-12-17T07:58:08;-1.00;99.90
21582;DHT22;10952;50.836;4.348;2022-12-17T08:00:53;-1.10;99.90
21582;DHT22;10952;50.836;4.348;2022-12-17T08:03:37;-1.10;99.90
21582;DHT22;10952;50.836;4.348;2022-12-17T08:06:21;-1.30;99.90
21582;DHT22;10952;50.836;4.348;2022-12-17T08:09:05;-1.20;99.90
21582;DHT22;10952;50.836;4.348;2022-12-17T08:11:49;-1.10;99.90
21582;DHT22;10952;50.836;4.348;2022-12-17T08:14:34;-1.30;99.90
21582;DHT22;10952;50.836;4.348;2022-12-17T08:17:18;-1.30;99.90
21582;DHT22;10952;50.836;4.348;2022-12-17T08:20:02;-1.40;99.90
21582;DHT22;10952;50.836;4.348;2022-12-17T08:22:47;-1.50;99.90
21582;DHT22;10952;50.836;4.348;2022-12-17T08:25:31;-1.60;99.90
21582;DHT22;10952;50.836;4.348;2022-12-17T08:28:15;-1.40;99.90
21582;DHT22;10952;50.836;4.348;2022-12-17T08:30:59;-1.50;99.90
21582;DHT22;10952;50.836;4.348;2022-12-17T08:33:43;-1.50;99.90
21582;DHT22;10952;50.836;4.348;2022-12-17T08:36:27;-1.40;99.90
21582;DHT22;10952;50.836;4.348;2022-12-17T08:39:11;-1.30;99.90
21582;DHT22;10952;50.836;4.348;2022-12-17T08:41:55;-1.20;99.90
21582;DHT22;10952;50.836;4.348;2022-12-17T08:44:39;-1.10;99.90
21582;DHT22;10952;50.836;4.348;2022-12-17T08:47:23;-1.00;99.90
21582;DHT22;10952;50.836;4.348;2022-12-17T08:50:07;-1.00;99.90
21582;DHT22;10952;50.836;4.348;2022-12-17T08:53:01;-1.00;99.90
21582;DHT22;10952;50.836;4.348;2022-12-17T08:55:45;-0.90;99.90
21582;DHT22;10952;50.836;4.348;2022-12-17T08:58:30;-1.00;99.90
21582;DHT22;10952;50.836;4.348;2022-12-17T09:01:14;-1.00;99.90
21582;DHT22;10952;50.836;4.348;2022-12-17T09:03:59;-0.90;99.90
21582;DHT22;10952;50.836;4.348;2022-12-17T09:06:43;-0.90;99.90
21582;DHT22;10952;50.836;4.348;2022-12-17T09:09:28;-1.00;99.90
21582;DHT22;10952;50.836;4.348;2022-12-17T09:12:12;-1.10;99.90
21582;DHT22;10952;50.836;4.348;2022-12-17T09:14:56;-1.30;99.90
21582;DHT22;10952;50.836;4.348;2022-12-17T09:17:40;-1.30;99.90
21582;DHT22;10952;50.836;4.348;2022-12-17T09:20:25;-1.20;99.90
21582;DHT22;10952;50.836;4.348;2022-12-17T09:23:09;-1.00;99.90
21582;DHT22;10952;50.836;4.348;2022-12-17T09:25:55;-0.90;99.90
21582;DHT22;10952;50.836;4.348;2022-12-17T09:28:50;-0.80;99.90
21582;DHT22;10952;50.836;4.348;2022-12-17T09:31:34;-0.70;99.90
21582;DHT22;10952;50.836;4.348;2022-12-17T09:34:18;-0.60;99.90
21582;DHT22;10952;50.836;4.348;2022-12-17T09:37:03;-0.60;99.90
21582;DHT22;10952;50.836;4.348;2022-12-17T09:39:48;-0.30;99.90
21582;DHT22;10952;50.836;4.348;2022-12-17T09:42:51;-0.20;99.90
21582;DHT22;10952;50.836;4.348;2022-12-17T09:51:43;0.10;99.90
21582;DHT22;10952;50.836;4.348;2022-12-17T09:54:42;0.20;99.90
21582;DHT22;10952;50.836;4.348;2022-12-17T09:57:31;0.30;99.90
21582;DHT22;10952;50.836;4.348;2022-12-17T10:00:25;0.20;99.90
21582;DHT22;10952;50.836;4.348;2022-12-17T10:03:16;0.20;99.90
21582;DHT22;10952;50.836;4.348;2022-12-17T10:06:23;0.20;99.90
21582;DHT22;10952;50.836;4.348;2022-12-17T10:09:13;0.30;99.90
21582;DHT22;10952;50.836;4.348;2022-12-17T10:12:07;0.50;99.90
21582;DHT22;10952;50.836;4.348;2022-12-17T10:14:53;0.40;99.90
21582;DHT22;10952;50.836;4.348;2022-12-17T10:17:37;0.60;99.90
21582;DHT22;10952;50.836;4.348;2022-12-17T10:23:27;0.90;99.90
21582;DHT22;10952;50.836;4.348;2022-12-17T10:26:24;0.80;99.90
21582;DHT22;10952;50.836;4.348;2022-12-17T10:29:11;0.90;99.90
21582;DHT22;10952;50.836;4.348;2022-12-17T10:32:11;1.10;99.90
21582;DHT22;10952;50.836;4.348;2022-12-17T10:37:51;3.10;99.90
21582;DHT22;10952;50.836;4.348;2022-12-17T10:40:36;4.30;99.90
21582;DHT22;10952;50.836;4.348;2022-12-17T10:46:22;6.40;99.90
21582;DHT22;10952;50.836;4.348;2022-12-17T10:49:27;7.00;99.90
21582;DHT22;10952;50.836;4.348;2022-12-17T10:52:29;7.60;99.90
21582;DHT22;10952;50.836;4.348;2022-12-17T10:55:23;7.90;99.90
21582;DHT22;10952;50.836;4.348;2022-12-17T10:58:13;8.10;99.90
21582;DHT22;10952;50.836;4.348;2022-12-17T11:01:00;8.50;99.90
21582;DHT22;10952;50.836;4.348;2022-12-17T11:03:58;8.40;99.90
21582;DHT22;10952;50.836;4.348;2022-12-17T11:06:44;8.40;99.90
21582;DHT22;10952;50.836;4.348;2022-12-17T11:09:30;8.40;99.90
21582;DHT22;10952;50.836;4.348;2022-12-17T11:12:17;8.80;99.90
21582;DHT22;10952;50.836;4.348;2022-12-17T11:18:21;8.10;99.90
21582;DHT22;10952;50.836;4.348;2022-12-17T11:21:11;8.20;99.90
21582;DHT22;10952;50.836;4.348;2022-12-17T11:23:59;8.50;99.90
21582;DHT22;10952;50.836;4.348;2022-12-17T11:26:46;8.60;99.90
21582;DHT22;10952;50.836;4.348;2022-12-17T11:29:32;8.70;99.90
21582;DHT22;10952;50.836;4.348;2022-12-17T11:35:30;7.60;99.90
21582;DHT22;10952;50.836;4.348;2022-12-17T11:38:38;7.00;99.90
21582;DHT22;10952;50.836;4.348;2022-12-17T11:41:34;6.10;99.90
21582;DHT22;10952;50.836;4.348;2022-12-17T11:56:40;4.30;99.90
21582;DHT22;10952;50.836;4.348;2022-12-17T12:08:33;3.70;99.90
21582;DHT22;10952;50.836;4.348;2022-12-17T12:11:26;3.40;99.90
21582;DHT22;10952;50.836;4.348;2022-12-17T12:14:40;3.30;99.90
21582;DHT22;10952;50.836;4.348;2022-12-17T12:17:47;3.20;99.90
21582;DHT22;10952;50.836;4.348;2022-12-17T12:23:37;3.40;99.90
21582;DHT22;10952;50.836;4.348;2022-12-17T12:26:36;3.20;99.90
21582;DHT22;10952;50.836;4.348;2022-12-17T12:35:27;3.40;99.90
21582;DHT22;10952;50.836;4.348;2022-12-17T12:38:24;3.30;99.90
21582;DHT22;10952;50.836;4.348;2022-12-17T12:41:37;3.40;99.90
21582;DHT22;10952;50.836;4.348;2022-12-17T12:44:36;3.20;99.90
21582;DHT22;10952;50.836;4.348;2022-12-17T12:47:42;3.20;99.90
21582;DHT22;10952;50.836;4.348;2022-12-17T12:53:58;3.00;99.90
21582;DHT22;10952;50.836;4.348;2022-12-17T12:56:42;3.10;99.90
21582;DHT22;10952;50.836;4.348;2022-12-17T12:59:29;3.20;99.90
21582;DHT22;10952;50.836;4.348;2022-12-17T13:05:25;3.80;99.90
21582;DHT22;10952;50.836;4.348;2022-12-17T13:10:32;4.20;99.90
21582;DHT22;10952;50.836;4.348;2022-12-17T13:13:21;4.50;99.90
21582;DHT22;10952;50.836;4.348;2022-12-17T13:15:53;4.70;99.90
21582;DHT22;10952;50.836;4.348;2022-12-17T13:18:34;4.60;99.90
21582;DHT22;10952;50.836;4.348;2022-12-17T13:23:39;5.00;99.90
21582;DHT22;10952;50.836;4.348;2022-12-17T13:32:08;5.00;99.90
21582;DHT22;10952;50.836;4.348;2022-12-17T13:40:31;4.60;99.90
21582;DHT22;10952;50.836;4.348;2022-12-17T13:42:58;4.50;99.90
21582;DHT22;10952;50.836;4.348;2022-12-17T13:45:25;4.40;99.90
21582;DHT22;10952;50.836;4.348;2022-12-17T13:47:56;4.20;99.90
21582;DHT22;10952;50.836;4.348;2022-12-17T13:50:25;4.20;99.90
21582;DHT22;10952;50.836;4.348;2022-12-17T13:52:51;4.20;99.90
21582;DHT22;10952;50.836;4.348;2022-12-17T13:55:26;4.20;99.90
21582;DHT22;10952;50.836;4.348;2022-12-17T13:57:54;4.20;99.90
21582;DHT22;10952;50.836;4.348;2022-12-17T14:00:25;4.20;99.90
21582;DHT22;10952;50.836;4.348;2022-12-17T14:02:52;4.10;99.90
21582;DHT22;10952;50.836;4.348;2022-12-17T14:08:00;4.00;99.90
21582;DHT22;10952;50.836;4.348;2022-12-17T14:10:28;4.00;99.90
21582;DHT22;10952;50.836;4.348;2022-12-17T14:13:07;3.80;99.90
21582;DHT22;10952;50.836;4.348;2022-12-17T14:15:36;3.70;99.90
21582;DHT22;10952;50.836;4.348;2022-12-17T14:18:02;3.60;99.90
21582;DHT22;10952;50.836;4.348;2022-12-17T14:20:31;3.50;99.90
21582;DHT22;10952;50.836;4.348;2022-12-17T14:23:06;3.50;99.90
21582;DHT22;10952;50.836;4.348;2022-12-17T14:25:36;3.60;99.90
21582;DHT22;10952;50.836;4.348;2022-12-17T14:28:23;3.60;99.90
21582;DHT22;10952;50.836;4.348;2022-12-17T14:30:50;3.70;99.90
21582;DHT22;10952;50.836;4.348;2022-12-17T14:33:35;3.80;99.90
21582;DHT22;10952;50.836;4.348;2022-12-17T14:36:22;3.90;99.90
21582;DHT22;10952;50.836;4.348;2022-12-17T14:38:56;3.90;99.90
21582;DHT22;10952;50.836;4.348;2022-12-17T14:41:24;3.80;99.90
21582;DHT22;10952;50.836;4.348;2022-12-17T14:44:26;3.70;99.90
21582;DHT22;10952;50.836;4.348;2022-12-17T14:47:14;3.70;99.90
21582;DHT22;10952;50.836;4.348;2022-12-17T14:52:41;3.40;99.90
21582;DHT22;10952;50.836;4.348;2022-12-17T14:55:23;3.30;99.90
21582;DHT22;10952;50.836;4.348;2022-12-17T14:57:50;3.30;99.90
21582;DHT22;10952;50.836;4.348;2022-12-17T15:00:16;3.30;99.90
21582;DHT22;10952;50.836;4.348;2022-12-17T15:02:49;3.30;99.90
21582;DHT22;10952;50.836;4.348;2022-12-17T15:05:15;3.40;99.90
21582;DHT22;10952;50.836;4.348;2022-12-17T15:07:41;3.40;99.90
21582;DHT22;10952;50.836;4.348;2022-12-17T15:10:13;3.40;99.90
21582;DHT22;10952;50.836;4.348;2022-12-17T15:12:41;3.30;99.90
21582;DHT22;10952;50.836;4.348;2022-12-17T15:15:10;3.10;99.90
21582;DHT22;10952;50.836;4.348;2022-12-17T15:17:36;3.00;99.90
21582;DHT22;10952;50.836;4.348;2022-12-17T15:20:02;2.90;99.90
21582;DHT22;10952;50.836;4.348;2022-12-17T15:22:28;2.80;99.90
21582;DHT22;10952;50.836;4.348;2022-12-17T15:24:54;2.80;99.90
21582;DHT22;10952;50.836;4.348;2022-12-17T15:27:19;2.90;99.90
21582;DHT22;10952;50.836;4.348;2022-12-17T15:29:45;2.70;99.90
21582;DHT22;10952;50.836;4.348;2022-12-17T15:32:19;2.60;99.90
21582;DHT22;10952;50.836;4.348;2022-12-17T15:34:45;2.50;99.90
21582;DHT22;10952;50.836;4.348;2022-12-17T15:37:13;2.50;99.90
21582;DHT22;10952;50.836;4.348;2022-12-17T15:39:39;2.40;99.90
21582;DHT22;10952;50.836;4.348;2022-12-17T15:42:04;2.30;99.90
21582;DHT22;10952;50.836;4.348;2022-12-17T15:44:48;2.30;99.90
21582;DHT22;10952;50.836;4.348;2022-12-17T15:47:14;2.20;99.90
21582;DHT22;10952;50.836;4.348;2022-12-17T15:58:26;2.00;99.90
21582;DHT22;10952;50.836;4.348;2022-12-17T16:00:53;2.10;99.90
21582;DHT22;10952;50.836;4.348;2022-12-17T16:03:19;2.10;99.90
21582;DHT22;10952;50.836;4.348;2022-12-17T16:05:47;2.10;99.90
21582;DHT22;10952;50.836;4.348;2022-12-17T16:08:13;2.00;99.90
21582;DHT22;10952;50.836;4.348;2022-12-17T16:10:42;2.00;99.90
21582;DHT22;10952;50.836;4.348;2022-12-17T16:13:10;2.00;99.90
21582;DHT22;10952;50.836;4.348;2022-12-17T16:15:36;2.10;99.90
21582;DHT22;10952;50.836;4.348;2022-12-17T16:18:02;2.20;99.90
21582;DHT22;10952;50.836;4.348;2022-12-17T16:20:27;2.30;99.90
21582;DHT22;10952;50.836;4.348;2022-12-17T16:22:53;2.30;99.90
21582;DHT22;10952;50.836;4.348;2022-12-17T16:25:23;2.40;99.90
21582;DHT22;10952;50.836;4.348;2022-12-17T16:27:52;2.20;99.90
21582;DHT22;10952;50.836;4.348;2022-12-17T16:30:18;2.30;99.90
21582;DHT22;10952;50.836;4.348;2022-12-17T16:32:43;2.20;99.90
21582;DHT22;10952;50.836;4.348;2022-12-17T16:35:09;2.00;99.90
21582;DHT22;10952;50.836;4.348;2022-12-17T16:37:36;2.00;99.90
21582;DHT22;10952;50.836;4.348;2022-12-17T16:40:02;2.00;99.90
21582;DHT22;10952;50.836;4.348;2022-12-17T16:42:27;1.90;99.90
21582;DHT22;10952;50.836;4.348;2022-12-17T16:44:53;1.90;99.90
21582;DHT22;10952;50.836;4.348;2022-12-17T16:47:21;2.00;99.90
21582;DHT22;10952;50.836;4.348;2022-12-17T16:49:49;1.90;99.90
21582;DHT22;10952;50.836;4.348;2022-12-17T16:52:16;1.80;99.90
21582;DHT22;10952;50.836;4.348;2022-12-17T16:54:41;1.70;99.90
21582;DHT22;10952;50.836;4.348;2022-12-17T16:57:08;1.60;99.90
21582;DHT22;10952;50.836;4.348;2022-12-17T16:59:34;1.60;99.90
21582;DHT22;10952;50.836;4.348;2022-12-17T17:01:59;1.70;99.90
21582;DHT22;10952;50.836;4.348;2022-12-17T17:04:27;1.60;99.90
21582;DHT22;10952;50.836;4.348;2022-12-17T17:06:55;1.50;99.90
21582;DHT22;10952;50.836;4.348;2022-12-17T17:09:23;1.50;99.90
21582;DHT22;10952;50.836;4.348;2022-12-17T17:11:49;1.50;99.90
21582;DHT22;10952;50.836;4.348;2022-12-17T17:14:15;1.60;99.90
21582;DHT22;10952;50.836;4.348;2022-12-17T17:16:42;1.50;99.90
21582;DHT22;10952;50.836;4.348;2022-12-17T17:19:07;1.40;99.90
21582;DHT22;10952;50.836;4.348;2022-12-17T17:21:37;1.40;99.90
21582;DHT22;10952;50.836;4.348;2022-12-17T17:24:11;1.50;99.90
21582;DHT22;10952;50.836;4.348;2022-12-17T17:26:37;1.50;99.90
21582;DHT22;10952;50.836;4.348;2022-12-17T17:29:03;1.50;99.90
21582;DHT22;10952;50.836;4.348;2022-12-17T17:31:33;1.60;99.90
21582;DHT22;10952;50.836;4.348;2022-12-17T17:33:58;1.70;99.90
21582;DHT22;10952;50.836;4.348;2022-12-17T17:36:26;1.70;99.90
21582;DHT22;10952;50.836;4.348;2022-12-17T17:38:54;1.70;99.90
21582;DHT22;10952;50.836;4.348;2022-12-17T17:41:26;1.70;99.90
21582;DHT22;10952;50.836;4.348;2022-12-17T17:43:58;1.80;99.90
21582;DHT22;10952;50.836;4.348;2022-12-17T17:46:24;1.80;99.90
21582;DHT22;10952;50.836;4.348;2022-12-17T17:48:51;1.90;99.90
21582;DHT22;10952;50.836;4.348;2022-12-17T17:51:22;1.90;99.90
21582;DHT22;10952;50.836;4.348;2022-12-17T17:53:51;2.00;99.90
21582;DHT22;10952;50.836;4.348;2022-12-17T17:56:23;1.80;99.90
21582;DHT22;10952;50.836;4.348;2022-12-17T17:59:21;1.80;99.90
21582;DHT22;10952;50.836;4.348;2022-12-17T18:01:52;1.80;99.90
21582;DHT22;10952;50.836;4.348;2022-12-17T18:04:29;1.70;99.90
21582;DHT22;10952;50.836;4.348;2022-12-17T18:06:55;1.70;99.90
21582;DHT22;10952;50.836;4.348;2022-12-17T18:09:26;1.80;99.90
21582;DHT22;10952;50.836;4.348;2022-12-17T18:11:52;1.60;99.90
21582;DHT22;10952;50.836;4.348;2022-12-17T18:14:21;1.50;99.90
21582;DHT22;10952;50.836;4.348;2022-12-17T18:16:48;1.60;99.90
21582;DHT22;10952;50.836;4.348;2022-12-17T18:19:20;1.40;99.90
21582;DHT22;10952;50.836;4.348;2022-12-17T18:21:52;1.40;99.90
21582;DHT22;10952;50.836;4.348;2022-12-17T18:24:22;1.40;99.90
21582;DHT22;10952;50.836;4.348;2022-12-17T18:26:49;1.40;99.90
21582;DHT22;10952;50.836;4.348;2022-12-17T18:29:26;1.40;99.90
21582;DHT22;10952;50.836;4.348;2022-12-17T18:31:53;1.40;99.90
21582;DHT22;10952;50.836;4.348;2022-12-17T18:34:23;1.50;99.90
21582;DHT22;10952;50.836;4.348;2022-12-17T18:36:53;1.60;99.90
21582;DHT22;10952;50.836;4.348;2022-12-17T18:39:23;1.40;99.90
21582;DHT22;10952;50.836;4.348;2022-12-17T18:41:50;1.50;99.90
21582;DHT22;10952;50.836;4.348;2022-12-17T18:44:40;1.50;99.90
21582;DHT22;10952;50.836;4.348;2022-12-17T18:47:09;1.40;99.90